LIRA/CIA METAR and TAF weather

Enter ICAO airport designator
Station Type Date Time Source
LIRA METAR 2021/03/01 21:20 UTC NOAA

LIRA 012120Z 18003KT CAVOK 10/07 Q1028


Station Type Date Time Source
LIRA Decoded METAR 2021/03/01 21:20 UTC NOAA

Roma / Ciampino, Italy (LIRA) 41-47N 012-35E 105M
Mar 01, 2021 - 04:20 PM EST / 2021.03.01 2120 UTC
Wind: from the S (180 degrees) at 3 MPH (3 KT):0
Visibility: greater than 7 mile(s):0
Temperature: 50 F (10 C)
Dew Point: 44 F (7 C)
Relative Humidity: 81%
Pressure (altimeter): 30.36 in. Hg (1028 hPa)
ob: LIRA 012120Z 18003KT CAVOK 10/07 Q1028
cycle: 21

Station Type Date Time Source
LIRA TAF 2021/03/01 18:25 UTC NOAA

TAF LIRA 011700Z 0118/0218 04006KT CAVOK

Example: see airport list